createdAt,value
2023-03-10T00:04:33.878Z,0
2023-03-10T00:10:56.758Z,0
2023-03-10T00:17:16.909Z,0
2023-03-10T00:23:39.829Z,0
2023-03-10T00:29:59.768Z,0
2023-03-10T00:36:22.782Z,0
2023-03-10T00:42:42.836Z,0
2023-03-10T00:49:05.753Z,0
2023-03-10T00:55:25.839Z,0
2023-03-10T01:01:48.833Z,0
2023-03-10T01:08:08.796Z,0
2023-03-10T01:14:31.762Z,0
2023-03-10T01:20:51.822Z,0
2023-03-10T01:27:14.755Z,0
2023-03-10T01:33:34.787Z,0
2023-03-10T01:39:57.757Z,0
2023-03-10T01:46:17.884Z,0
2023-03-10T01:52:40.957Z,0
2023-03-10T01:59:00.773Z,0
2023-03-10T02:05:23.771Z,0
2023-03-10T02:11:43.838Z,0
2023-03-10T02:18:06.828Z,0
2023-03-10T02:24:26.732Z,0
2023-03-10T02:30:49.899Z,0
2023-03-10T02:37:09.761Z,0
2023-03-10T02:43:32.780Z,0
2023-03-10T02:49:52.788Z,0
2023-03-10T02:56:15.774Z,0
2023-03-10T03:02:35.799Z,0
2023-03-10T03:08:58.894Z,0
2023-03-10T03:15:18.799Z,0
2023-03-10T03:21:41.757Z,0
2023-03-10T03:28:01.779Z,0
2023-03-10T03:34:24.730Z,0
2023-03-10T03:40:44.808Z,0
2023-03-10T03:47:07.966Z,0
2023-03-10T03:53:27.810Z,0
2023-03-10T03:59:50.737Z,0
2023-03-10T04:06:10.826Z,0
2023-03-10T04:12:33.762Z,0
2023-03-10T04:18:53.836Z,0
2023-03-10T04:25:16.768Z,0
2023-03-10T04:41:41.750Z,0
2023-03-10T04:48:01.746Z,0
2023-03-10T04:54:24.787Z,0
2023-03-10T05:00:56.608Z,0
2023-03-10T05:07:07.860Z,0
2023-03-10T05:13:30.144Z,0
2023-03-10T05:19:50.784Z,0
2023-03-10T05:26:10.771Z,0
2023-03-10T05:32:33.817Z,0
2023-03-10T05:38:53.814Z,0
2023-03-10T05:45:16.773Z,0
2023-03-10T05:51:36.788Z,0
2023-03-10T05:57:59.914Z,0
2023-03-10T06:04:19.787Z,0
2023-03-10T06:10:42.829Z,0
2023-03-10T06:17:02.788Z,0
2023-03-10T06:23:25.746Z,0
2023-03-10T06:29:45.795Z,0
2023-03-10T06:36:08.902Z,5.62
2023-03-10T06:42:28.809Z,0
2023-03-10T06:48:51.763Z,0
2023-03-10T06:55:11.796Z,0
2023-03-10T07:01:34.908Z,5.62
2023-03-10T07:07:54.755Z,11.25
2023-03-10T07:14:17.879Z,16.88
2023-03-10T07:20:37.798Z,22.5
2023-03-10T07:27:00.820Z,28.12
2023-03-10T07:33:20.816Z,33.75
2023-03-10T07:39:43.786Z,33.75
2023-03-10T07:46:03.863Z,33.75
2023-03-10T07:52:26.781Z,39.38
2023-03-10T07:58:46.735Z,39.38
2023-03-10T08:05:09.925Z,39.38
2023-03-10T08:11:29.790Z,33.75
2023-03-10T08:17:52.768Z,33.75
2023-03-10T08:24:12.741Z,39.38
2023-03-10T08:30:35.794Z,39.38
2023-03-10T08:36:55.861Z,39.38
2023-03-10T08:43:18.953Z,45
2023-03-10T08:49:38.825Z,50.62
2023-03-10T08:56:01.749Z,56.25
2023-03-10T09:02:21.914Z,50.62
2023-03-10T09:08:44.840Z,56.25
2023-03-10T09:15:04.744Z,61.88
2023-03-10T09:21:27.833Z,39.38
2023-03-10T09:27:47.880Z,61.88
2023-03-10T09:34:10.745Z,67.5
2023-03-10T09:40:30.857Z,56.25
2023-03-10T09:46:53.766Z,78.75
2023-03-10T10:03:01.791Z,67.5
2023-03-10T10:09:21.751Z,106.88
2023-03-10T10:15:44.775Z,67.5
2023-03-10T10:22:04.879Z,61.88
2023-03-10T10:28:27.744Z,84.38
2023-03-10T10:34:47.776Z,67.5
2023-03-10T10:41:10.777Z,67.5
2023-03-10T10:47:30.806Z,61.88
2023-03-10T10:53:53.742Z,39.38
2023-03-10T11:00:13.764Z,22.5
2023-03-10T11:06:36.776Z,28.12
2023-03-10T11:12:56.770Z,28.12
2023-03-10T11:19:19.808Z,22.5
2023-03-10T11:25:39.739Z,39.38
2023-03-10T11:32:02.772Z,45
2023-03-10T11:38:22.775Z,28.12
2023-03-10T11:44:45.769Z,33.75
2023-03-10T11:51:05.776Z,22.5
2023-03-10T11:57:28.802Z,22.5
2023-03-10T12:03:48.846Z,16.88
2023-03-10T12:10:11.743Z,22.5
2023-03-10T12:16:31.926Z,56.25
2023-03-10T12:22:54.750Z,39.38
2023-03-10T12:29:14.767Z,28.12
2023-03-10T12:35:37.992Z,16.88
2023-03-10T12:41:57.838Z,39.38
2023-03-10T12:48:20.879Z,56.25
2023-03-10T12:54:40.848Z,33.75
2023-03-10T13:01:03.773Z,33.75
2023-03-10T13:07:23.760Z,33.75
2023-03-10T13:13:46.811Z,39.38
2023-03-10T13:20:06.822Z,39.38
2023-03-10T13:26:29.783Z,16.88
2023-03-10T13:32:49.848Z,28.12
2023-03-10T13:39:12.763Z,28.12
2023-03-10T13:45:32.790Z,16.88
2023-03-10T13:51:55.855Z,16.88
2023-03-10T13:58:15.781Z,22.5
2023-03-10T14:04:38.812Z,11.25
2023-03-10T14:10:58.794Z,11.25
2023-03-10T14:17:21.782Z,11.25
2023-03-10T14:23:41.786Z,11.25
2023-03-10T14:30:04.767Z,11.25
2023-03-10T14:36:24.776Z,11.25
2023-03-10T14:42:47.785Z,16.88
2023-03-10T14:49:07.785Z,22.5
2023-03-10T14:55:30.810Z,16.88
2023-03-10T15:01:50.970Z,22.5
2023-03-10T15:08:13.846Z,11.25
2023-03-10T15:14:33.758Z,5.62
2023-03-10T15:37:57.800Z,5.62
2023-03-10T15:44:20.749Z,0
2023-03-10T15:50:40.767Z,5.62
2023-03-10T15:57:03.808Z,11.25
2023-03-10T16:03:23.747Z,11.25
2023-03-10T16:09:46.825Z,5.62
2023-03-10T16:16:06.788Z,0
2023-03-10T16:22:29.812Z,0
2023-03-10T16:28:49.822Z,0
2023-03-10T16:35:12.813Z,0
2023-03-10T16:41:32.796Z,0
2023-03-10T16:47:55.802Z,0
2023-03-10T16:54:15.812Z,0
2023-03-10T17:00:38.791Z,0
2023-03-10T17:06:58.745Z,0
2023-03-10T17:13:21.874Z,0
2023-03-10T17:19:42.217Z,0
2023-03-10T17:26:05.160Z,0
2023-03-10T17:32:24.913Z,0
2023-03-10T17:38:47.749Z,0
2023-03-10T17:45:07.776Z,0
2023-03-10T17:51:30.817Z,0
2023-03-10T17:57:50.941Z,0
2023-03-10T18:04:13.808Z,0
2023-03-10T18:10:33.798Z,0
2023-03-10T18:16:56.772Z,0
2023-03-10T18:23:16.780Z,0
2023-03-10T18:29:39.790Z,0
2023-03-10T18:35:59.734Z,0
2023-03-10T18:42:22.760Z,0
2023-03-10T18:48:42.866Z,0
2023-03-10T18:55:05.757Z,0
2023-03-10T19:01:25.838Z,0
2023-03-10T19:07:48.804Z,0
2023-03-10T19:14:08.773Z,0
2023-03-10T19:20:31.768Z,0
2023-03-10T19:26:51.827Z,0
2023-03-10T19:33:14.914Z,0
2023-03-10T19:39:34.802Z,0
2023-03-10T19:45:57.846Z,0
2023-03-10T19:52:17.741Z,0
2023-03-10T19:58:40.730Z,0
2023-03-10T20:05:00.833Z,0
2023-03-10T20:11:23.794Z,0
2023-03-10T20:17:43.893Z,0
2023-03-10T20:24:06.913Z,0
2023-03-10T20:30:26.827Z,0
2023-03-10T20:36:49.822Z,0
2023-03-10T20:43:09.837Z,0
2023-03-10T20:59:38.669Z,0
2023-03-10T21:05:58.759Z,0
2023-03-10T21:12:21.741Z,0
2023-03-10T21:18:41.789Z,0
2023-03-10T21:25:04.754Z,0
2023-03-10T21:31:24.857Z,0
2023-03-10T21:37:47.827Z,0
2023-03-10T21:44:07.771Z,0
2023-03-10T21:50:30.866Z,0
2023-03-10T21:56:50.852Z,0
2023-03-10T22:03:13.745Z,0
2023-03-10T22:09:33.830Z,0
2023-03-10T22:15:56.889Z,0
2023-03-10T22:22:16.792Z,0
2023-03-10T22:28:39.750Z,0
2023-03-10T22:34:59.786Z,0
2023-03-10T22:41:22.791Z,0
2023-03-10T22:47:42.829Z,0
2023-03-10T22:54:05.920Z,0
2023-03-10T23:00:25.742Z,0
2023-03-10T23:23:23.821Z,0
2023-03-10T23:29:43.764Z,0
2023-03-10T23:36:06.848Z,0
2023-03-10T23:42:26.817Z,0
2023-03-10T23:48:49.760Z,0
2023-03-10T23:55:09.807Z,0
